sensor_id;sensor_type;location;lat;lon;timestamp;P1;durP1;ratioP1;P2;durP2;ratioP2
12308;SDS011;6217;48.150;17.142;2024-02-16T00:03:50;33.10;;;22.40;;
12308;SDS011;6217;48.150;17.142;2024-02-16T00:07:56;28.77;;;21.95;;
12308;SDS011;6217;48.150;17.142;2024-02-16T00:12:02;31.52;;;22.48;;
12308;SDS011;6217;48.150;17.142;2024-02-16T00:16:08;33.67;;;23.27;;
12308;SDS011;6217;48.150;17.142;2024-02-16T00:20:14;30.52;;;23.10;;
12308;SDS011;6217;48.150;17.142;2024-02-16T00:24:20;29.80;;;21.63;;
12308;SDS011;6217;48.150;17.142;2024-02-16T00:28:26;28.95;;;22.02;;
12308;SDS011;6217;48.150;17.142;2024-02-16T00:32:32;31.15;;;23.58;;
12308;SDS011;6217;48.150;17.142;2024-02-16T00:36:38;32.80;;;23.77;;
12308;SDS011;6217;48.150;17.142;2024-02-16T00:40:44;33.17;;;23.08;;
12308;SDS011;6217;48.150;17.142;2024-02-16T00:44:50;29.77;;;22.95;;
12308;SDS011;6217;48.150;17.142;2024-02-16T00:48:56;32.83;;;22.90;;
12308;SDS011;6217;48.150;17.142;2024-02-16T00:53:02;40.75;;;22.65;;
12308;SDS011;6217;48.150;17.142;2024-02-16T00:57:09;33.97;;;23.02;;
12308;SDS011;6217;48.150;17.142;2024-02-16T01:01:15;32.10;;;23.40;;
12308;SDS011;6217;48.150;17.142;2024-02-16T01:05:21;36.70;;;23.90;;
12308;SDS011;6217;48.150;17.142;2024-02-16T01:09:28;32.50;;;22.58;;
12308;SDS011;6217;48.150;17.142;2024-02-16T01:13:34;32.53;;;23.88;;
12308;SDS011;6217;48.150;17.142;2024-02-16T01:17:41;32.95;;;23.27;;
12308;SDS011;6217;48.150;17.142;2024-02-16T01:21:47;31.05;;;22.77;;
12308;SDS011;6217;48.150;17.142;2024-02-16T01:25:57;33.40;;;23.13;;
12308;SDS011;6217;48.150;17.142;2024-02-16T01:30:03;33.05;;;23.45;;
12308;SDS011;6217;48.150;17.142;2024-02-16T01:34:10;38.08;;;24.40;;
12308;SDS011;6217;48.150;17.142;2024-02-16T01:38:16;32.70;;;25.38;;
12308;SDS011;6217;48.150;17.142;2024-02-16T01:42:21;34.78;;;23.95;;
12308;SDS011;6217;48.150;17.142;2024-02-16T01:46:27;32.78;;;23.75;;
12308;SDS011;6217;48.150;17.142;2024-02-16T01:50:34;36.90;;;24.08;;
12308;SDS011;6217;48.150;17.142;2024-02-16T01:54:40;33.15;;;25.08;;
12308;SDS011;6217;48.150;17.142;2024-02-16T01:58:46;32.83;;;25.25;;
12308;SDS011;6217;48.150;17.142;2024-02-16T02:02:54;36.35;;;24.15;;
12308;SDS011;6217;48.150;17.142;2024-02-16T02:07:00;33.88;;;23.45;;
12308;SDS011;6217;48.150;17.142;2024-02-16T02:11:20;31.67;;;22.58;;
12308;SDS011;6217;48.150;17.142;2024-02-16T02:15:26;32.38;;;23.45;;
12308;SDS011;6217;48.150;17.142;2024-02-16T02:19:32;29.98;;;23.65;;
12308;SDS011;6217;48.150;17.142;2024-02-16T02:23:38;37.25;;;24.25;;
12308;SDS011;6217;48.150;17.142;2024-02-16T02:27:43;36.72;;;24.45;;
12308;SDS011;6217;48.150;17.142;2024-02-16T02:31:50;35.75;;;23.98;;
12308;SDS011;6217;48.150;17.142;2024-02-16T02:35:56;37.35;;;24.90;;
12308;SDS011;6217;48.150;17.142;2024-02-16T02:40:02;36.50;;;25.75;;
12308;SDS011;6217;48.150;17.142;2024-02-16T02:44:13;35.33;;;24.42;;
12308;SDS011;6217;48.150;17.142;2024-02-16T02:48:19;34.15;;;25.13;;
12308;SDS011;6217;48.150;17.142;2024-02-16T02:52:25;38.90;;;25.38;;
12308;SDS011;6217;48.150;17.142;2024-02-16T02:56:31;36.45;;;24.45;;
12308;SDS011;6217;48.150;17.142;2024-02-16T03:00:37;36.03;;;24.50;;
12308;SDS011;6217;48.150;17.142;2024-02-16T03:04:43;35.15;;;25.10;;
12308;SDS011;6217;48.150;17.142;2024-02-16T03:08:49;36.65;;;24.20;;
12308;SDS011;6217;48.150;17.142;2024-02-16T03:12:55;37.20;;;26.13;;
12308;SDS011;6217;48.150;17.142;2024-02-16T03:17:01;38.08;;;26.30;;
12308;SDS011;6217;48.150;17.142;2024-02-16T03:21:07;35.47;;;25.00;;
12308;SDS011;6217;48.150;17.142;2024-02-16T03:25:13;37.22;;;26.40;;
12308;SDS011;6217;48.150;17.142;2024-02-16T03:29:19;33.53;;;24.17;;
12308;SDS011;6217;48.150;17.142;2024-02-16T03:33:24;40.33;;;25.35;;
12308;SDS011;6217;48.150;17.142;2024-02-16T03:37:30;39.75;;;26.20;;
12308;SDS011;6217;48.150;17.142;2024-02-16T03:41:36;35.45;;;23.83;;
12308;SDS011;6217;48.150;17.142;2024-02-16T03:45:42;35.63;;;25.30;;
12308;SDS011;6217;48.150;17.142;2024-02-16T03:49:48;33.80;;;23.60;;
12308;SDS011;6217;48.150;17.142;2024-02-16T03:53:54;36.15;;;26.63;;
12308;SDS011;6217;48.150;17.142;2024-02-16T03:58:00;40.97;;;27.08;;
12308;SDS011;6217;48.150;17.142;2024-02-16T04:02:07;33.65;;;24.73;;
12308;SDS011;6217;48.150;17.142;2024-02-16T04:06:12;37.75;;;23.92;;
12308;SDS011;6217;48.150;17.142;2024-02-16T04:10:18;32.90;;;22.65;;
12308;SDS011;6217;48.150;17.142;2024-02-16T04:14:24;35.60;;;22.63;;
12308;SDS011;6217;48.150;17.142;2024-02-16T04:18:30;34.70;;;25.13;;
12308;SDS011;6217;48.150;17.142;2024-02-16T04:22:36;32.00;;;22.80;;
12308;SDS011;6217;48.150;17.142;2024-02-16T04:26:43;31.63;;;23.73;;
12308;SDS011;6217;48.150;17.142;2024-02-16T04:30:49;34.72;;;24.00;;
12308;SDS011;6217;48.150;17.142;2024-02-16T04:34:55;32.83;;;22.55;;
12308;SDS011;6217;48.150;17.142;2024-02-16T04:39:01;34.92;;;24.23;;
12308;SDS011;6217;48.150;17.142;2024-02-16T04:43:08;34.58;;;24.25;;
12308;SDS011;6217;48.150;17.142;2024-02-16T04:47:14;34.30;;;21.38;;
12308;SDS011;6217;48.150;17.142;2024-02-16T04:51:20;30.48;;;21.98;;
12308;SDS011;6217;48.150;17.142;2024-02-16T04:55:26;36.38;;;23.45;;
12308;SDS011;6217;48.150;17.142;2024-02-16T04:59:31;28.20;;;22.70;;
12308;SDS011;6217;48.150;17.142;2024-02-16T05:03:37;31.90;;;24.83;;
12308;SDS011;6217;48.150;17.142;2024-02-16T05:07:49;35.63;;;22.98;;
12308;SDS011;6217;48.150;17.142;2024-02-16T05:11:55;33.80;;;21.15;;
12308;SDS011;6217;48.150;17.142;2024-02-16T05:16:01;32.13;;;23.25;;
12308;SDS011;6217;48.150;17.142;2024-02-16T05:20:11;30.70;;;22.10;;
12308;SDS011;6217;48.150;17.142;2024-02-16T05:24:20;32.95;;;22.15;;
12308;SDS011;6217;48.150;17.142;2024-02-16T05:28:27;29.40;;;22.13;;
12308;SDS011;6217;48.150;17.142;2024-02-16T05:32:34;44.78;;;22.13;;
12308;SDS011;6217;48.150;17.142;2024-02-16T05:36:44;30.57;;;21.47;;
12308;SDS011;6217;48.150;17.142;2024-02-16T05:40:50;37.28;;;22.85;;
12308;SDS011;6217;48.150;17.142;2024-02-16T05:44:58;31.98;;;21.42;;
12308;SDS011;6217;48.150;17.142;2024-02-16T05:49:05;36.67;;;25.13;;
12308;SDS011;6217;48.150;17.142;2024-02-16T05:53:10;35.85;;;21.77;;
12308;SDS011;6217;48.150;17.142;2024-02-16T05:57:16;36.50;;;24.13;;
12308;SDS011;6217;48.150;17.142;2024-02-16T06:01:23;33.80;;;23.95;;
12308;SDS011;6217;48.150;17.142;2024-02-16T06:05:29;33.85;;;22.88;;
12308;SDS011;6217;48.150;17.142;2024-02-16T06:09:35;35.65;;;24.88;;
12308;SDS011;6217;48.150;17.142;2024-02-16T06:13:42;35.50;;;22.35;;
12308;SDS011;6217;48.150;17.142;2024-02-16T06:17:48;35.72;;;23.23;;
12308;SDS011;6217;48.150;17.142;2024-02-16T06:21:55;32.00;;;23.02;;
12308;SDS011;6217;48.150;17.142;2024-02-16T06:26:01;29.73;;;21.98;;
12308;SDS011;6217;48.150;17.142;2024-02-16T06:30:07;33.47;;;22.48;;
12308;SDS011;6217;48.150;17.142;2024-02-16T06:34:18;24.55;;;20.27;;
12308;SDS011;6217;48.150;17.142;2024-02-16T06:38:24;31.73;;;22.83;;
12308;SDS011;6217;48.150;17.142;2024-02-16T06:42:30;29.85;;;20.50;;
12308;SDS011;6217;48.150;17.142;2024-02-16T06:46:36;29.02;;;22.02;;
12308;SDS011;6217;48.150;17.142;2024-02-16T06:50:42;25.58;;;18.80;;
12308;SDS011;6217;48.150;17.142;2024-02-16T06:54:48;31.25;;;20.67;;
12308;SDS011;6217;48.150;17.142;2024-02-16T06:58:58;27.05;;;19.70;;
12308;SDS011;6217;48.150;17.142;2024-02-16T07:03:04;28.55;;;20.52;;
12308;SDS011;6217;48.150;17.142;2024-02-16T07:07:10;29.23;;;20.20;;
12308;SDS011;6217;48.150;17.142;2024-02-16T07:11:17;26.77;;;18.00;;
12308;SDS011;6217;48.150;17.142;2024-02-16T07:15:23;30.15;;;20.25;;
12308;SDS011;6217;48.150;17.142;2024-02-16T07:19:31;26.45;;;20.45;;
12308;SDS011;6217;48.150;17.142;2024-02-16T07:23:37;25.35;;;20.77;;
12308;SDS011;6217;48.150;17.142;2024-02-16T07:27:43;26.10;;;19.40;;
12308;SDS011;6217;48.150;17.142;2024-02-16T07:31:49;26.77;;;22.58;;
12308;SDS011;6217;48.150;17.142;2024-02-16T07:35:57;29.00;;;20.55;;
12308;SDS011;6217;48.150;17.142;2024-02-16T07:40:03;26.00;;;19.73;;
12308;SDS011;6217;48.150;17.142;2024-02-16T07:44:14;24.67;;;18.38;;
12308;SDS011;6217;48.150;17.142;2024-02-16T07:48:20;29.02;;;20.20;;
12308;SDS011;6217;48.150;17.142;2024-02-16T07:52:27;27.52;;;20.45;;
12308;SDS011;6217;48.150;17.142;2024-02-16T07:56:33;24.98;;;18.88;;
12308;SDS011;6217;48.150;17.142;2024-02-16T08:00:39;26.33;;;20.48;;
12308;SDS011;6217;48.150;17.142;2024-02-16T08:04:51;36.63;;;21.77;;
12308;SDS011;6217;48.150;17.142;2024-02-16T08:08:57;28.75;;;21.00;;
12308;SDS011;6217;48.150;17.142;2024-02-16T08:13:03;22.38;;;17.75;;
12308;SDS011;6217;48.150;17.142;2024-02-16T08:17:09;23.65;;;18.30;;
12308;SDS011;6217;48.150;17.142;2024-02-16T08:21:16;23.52;;;19.75;;
12308;SDS011;6217;48.150;17.142;2024-02-16T08:25:22;24.02;;;18.67;;
12308;SDS011;6217;48.150;17.142;2024-02-16T08:29:28;29.95;;;19.60;;
12308;SDS011;6217;48.150;17.142;2024-02-16T08:33:34;28.33;;;21.27;;
12308;SDS011;6217;48.150;17.142;2024-02-16T08:37:42;22.73;;;18.23;;
12308;SDS011;6217;48.150;17.142;2024-02-16T08:41:48;26.15;;;17.98;;
12308;SDS011;6217;48.150;17.142;2024-02-16T08:45:54;23.60;;;15.80;;
12308;SDS011;6217;48.150;17.142;2024-02-16T08:50:00;24.00;;;18.00;;
12308;SDS011;6217;48.150;17.142;2024-02-16T08:54:06;20.92;;;17.05;;
12308;SDS011;6217;48.150;17.142;2024-02-16T08:58:12;23.70;;;18.08;;
12308;SDS011;6217;48.150;17.142;2024-02-16T09:02:26;26.63;;;18.38;;
12308;SDS011;6217;48.150;17.142;2024-02-16T09:06:32;21.70;;;17.58;;
12308;SDS011;6217;48.150;17.142;2024-02-16T09:10:40;21.23;;;16.85;;
12308;SDS011;6217;48.150;17.142;2024-02-16T09:14:45;22.83;;;17.83;;
12308;SDS011;6217;48.150;17.142;2024-02-16T09:18:51;22.33;;;16.15;;
12308;SDS011;6217;48.150;17.142;2024-02-16T09:22:57;17.75;;;14.90;;
12308;SDS011;6217;48.150;17.142;2024-02-16T09:27:03;16.60;;;13.15;;
12308;SDS011;6217;48.150;17.142;2024-02-16T09:31:13;18.20;;;13.77;;
12308;SDS011;6217;48.150;17.142;2024-02-16T09:35:19;17.48;;;13.63;;
12308;SDS011;6217;48.150;17.142;2024-02-16T09:39:25;18.88;;;14.20;;
12308;SDS011;6217;48.150;17.142;2024-02-16T09:43:33;17.85;;;14.13;;
12308;SDS011;6217;48.150;17.142;2024-02-16T09:47:39;15.10;;;11.07;;
12308;SDS011;6217;48.150;17.142;2024-02-16T09:51:48;17.08;;;11.18;;
12308;SDS011;6217;48.150;17.142;2024-02-16T09:55:54;19.30;;;12.18;;
12308;SDS011;6217;48.150;17.142;2024-02-16T10:00:01;12.80;;;11.13;;
12308;SDS011;6217;48.150;17.142;2024-02-16T10:04:17;17.08;;;11.82;;
12308;SDS011;6217;48.150;17.142;2024-02-16T10:08:24;16.83;;;12.85;;
12308;SDS011;6217;48.150;17.142;2024-02-16T10:12:30;16.73;;;12.73;;
12308;SDS011;6217;48.150;17.142;2024-02-16T10:16:36;18.90;;;11.52;;
12308;SDS011;6217;48.150;17.142;2024-02-16T10:20:44;17.42;;;12.63;;
12308;SDS011;6217;48.150;17.142;2024-02-16T10:24:50;15.68;;;12.98;;
12308;SDS011;6217;48.150;17.142;2024-02-16T10:28:56;14.40;;;11.52;;
12308;SDS011;6217;48.150;17.142;2024-02-16T10:33:03;13.63;;;11.18;;
12308;SDS011;6217;48.150;17.142;2024-02-16T10:37:12;16.48;;;10.70;;
12308;SDS011;6217;48.150;17.142;2024-02-16T10:41:20;13.63;;;10.18;;
12308;SDS011;6217;48.150;17.142;2024-02-16T10:45:37;13.45;;;9.45;;
12308;SDS011;6217;48.150;17.142;2024-02-16T10:49:44;16.63;;;12.20;;
12308;SDS011;6217;48.150;17.142;2024-02-16T10:53:51;11.93;;;9.35;;
12308;SDS011;6217;48.150;17.142;2024-02-16T10:57:59;12.27;;;9.98;;
12308;SDS011;6217;48.150;17.142;2024-02-16T11:02:06;12.32;;;9.57;;
12308;SDS011;6217;48.150;17.142;2024-02-16T11:06:15;14.35;;;9.05;;
12308;SDS011;6217;48.150;17.142;2024-02-16T11:10:24;11.50;;;8.85;;
12308;SDS011;6217;48.150;17.142;2024-02-16T11:14:36;13.85;;;9.75;;
12308;SDS011;6217;48.150;17.142;2024-02-16T11:18:45;7.78;;;6.75;;
12308;SDS011;6217;48.150;17.142;2024-02-16T11:22:54;9.65;;;5.90;;
12308;SDS011;6217;48.150;17.142;2024-02-16T11:27:17;8.80;;;7.38;;
12308;SDS011;6217;48.150;17.142;2024-02-16T11:31:27;9.23;;;6.90;;
12308;SDS011;6217;48.150;17.142;2024-02-16T11:35:33;8.10;;;6.68;;
12308;SDS011;6217;48.150;17.142;2024-02-16T11:39:39;9.45;;;7.15;;
12308;SDS011;6217;48.150;17.142;2024-02-16T11:43:49;11.13;;;7.13;;
12308;SDS011;6217;48.150;17.142;2024-02-16T11:48:05;8.63;;;7.72;;
12308;SDS011;6217;48.150;17.142;2024-02-16T11:52:12;11.77;;;7.47;;
12308;SDS011;6217;48.150;17.142;2024-02-16T11:56:23;8.10;;;6.85;;
12308;SDS011;6217;48.150;17.142;2024-02-16T12:00:29;9.45;;;8.13;;
12308;SDS011;6217;48.150;17.142;2024-02-16T12:04:35;11.05;;;7.72;;
12308;SDS011;6217;48.150;17.142;2024-02-16T12:08:41;11.23;;;6.38;;
12308;SDS011;6217;48.150;17.142;2024-02-16T12:12:47;8.38;;;6.20;;
12308;SDS011;6217;48.150;17.142;2024-02-16T12:16:57;9.15;;;6.78;;
12308;SDS011;6217;48.150;17.142;2024-02-16T12:21:05;8.32;;;6.65;;
12308;SDS011;6217;48.150;17.142;2024-02-16T12:25:11;12.18;;;7.32;;
12308;SDS011;6217;48.150;17.142;2024-02-16T12:29:17;10.30;;;6.78;;
12308;SDS011;6217;48.150;17.142;2024-02-16T12:33:23;10.68;;;6.25;;
12308;SDS011;6217;48.150;17.142;2024-02-16T12:37:30;7.53;;;6.25;;
12308;SDS011;6217;48.150;17.142;2024-02-16T12:41:36;9.25;;;7.40;;
12308;SDS011;6217;48.150;17.142;2024-02-16T12:45:42;11.65;;;8.57;;
12308;SDS011;6217;48.150;17.142;2024-02-16T12:49:48;10.93;;;7.63;;
12308;SDS011;6217;48.150;17.142;2024-02-16T12:53:54;10.30;;;8.10;;
12308;SDS011;6217;48.150;17.142;2024-02-16T12:58:00;11.13;;;8.35;;
12308;SDS011;6217;48.150;17.142;2024-02-16T13:02:06;8.55;;;7.72;;
12308;SDS011;6217;48.150;17.142;2024-02-16T13:06:12;8.77;;;7.88;;
12308;SDS011;6217;48.150;17.142;2024-02-16T13:10:18;8.75;;;7.63;;
12308;SDS011;6217;48.150;17.142;2024-02-16T13:14:25;12.60;;;8.68;;
12308;SDS011;6217;48.150;17.142;2024-02-16T13:18:32;11.18;;;8.38;;
12308;SDS011;6217;48.150;17.142;2024-02-16T13:22:38;8.98;;;8.02;;
12308;SDS011;6217;48.150;17.142;2024-02-16T13:26:44;10.32;;;8.02;;
12308;SDS011;6217;48.150;17.142;2024-02-16T13:30:50;10.20;;;8.40;;
12308;SDS011;6217;48.150;17.142;2024-02-16T13:34:56;12.43;;;8.32;;
12308;SDS011;6217;48.150;17.142;2024-02-16T13:39:02;10.20;;;8.07;;
12308;SDS011;6217;48.150;17.142;2024-02-16T13:43:08;10.75;;;7.22;;
12308;SDS011;6217;48.150;17.142;2024-02-16T13:47:15;11.38;;;8.43;;
12308;SDS011;6217;48.150;17.142;2024-02-16T13:51:20;13.98;;;7.72;;
12308;SDS011;6217;48.150;17.142;2024-02-16T13:55:26;11.15;;;7.32;;
12308;SDS011;6217;48.150;17.142;2024-02-16T13:59:32;8.52;;;6.70;;
12308;SDS011;6217;48.150;17.142;2024-02-16T14:03:38;11.85;;;8.30;;
12308;SDS011;6217;48.150;17.142;2024-02-16T14:07:45;8.55;;;6.82;;
12308;SDS011;6217;48.150;17.142;2024-02-16T14:11:51;12.27;;;6.90;;
12308;SDS011;6217;48.150;17.142;2024-02-16T14:15:59;8.70;;;7.60;;
12308;SDS011;6217;48.150;17.142;2024-02-16T14:20:05;7.50;;;6.32;;
12308;SDS011;6217;48.150;17.142;2024-02-16T14:24:11;14.55;;;8.05;;
12308;SDS011;6217;48.150;17.142;2024-02-16T14:28:18;11.95;;;7.30;;
12308;SDS011;6217;48.150;17.142;2024-02-16T14:32:24;11.95;;;6.65;;
12308;SDS011;6217;48.150;17.142;2024-02-16T14:36:30;9.07;;;7.35;;
12308;SDS011;6217;48.150;17.142;2024-02-16T14:40:36;10.45;;;7.57;;
12308;SDS011;6217;48.150;17.142;2024-02-16T14:44:41;8.55;;;6.43;;
12308;SDS011;6217;48.150;17.142;2024-02-16T14:48:47;9.75;;;6.65;;
12308;SDS011;6217;48.150;17.142;2024-02-16T14:52:54;9.50;;;7.00;;
12308;SDS011;6217;48.150;17.142;2024-02-16T14:57:03;8.43;;;6.35;;
12308;SDS011;6217;48.150;17.142;2024-02-16T15:01:10;8.27;;;5.75;;
12308;SDS011;6217;48.150;17.142;2024-02-16T15:05:17;10.27;;;8.80;;
12308;SDS011;6217;48.150;17.142;2024-02-16T15:09:23;11.52;;;7.38;;
12308;SDS011;6217;48.150;17.142;2024-02-16T15:13:28;12.20;;;8.30;;
12308;SDS011;6217;48.150;17.142;2024-02-16T15:17:35;10.02;;;8.57;;
12308;SDS011;6217;48.150;17.142;2024-02-16T15:21:41;13.20;;;9.45;;
12308;SDS011;6217;48.150;17.142;2024-02-16T15:25:47;15.40;;;8.82;;
12308;SDS011;6217;48.150;17.142;2024-02-16T15:29:54;13.98;;;9.10;;
12308;SDS011;6217;48.150;17.142;2024-02-16T15:34:00;23.00;;;9.40;;
12308;SDS011;6217;48.150;17.142;2024-02-16T15:38:06;11.77;;;8.30;;
12308;SDS011;6217;48.150;17.142;2024-02-16T15:42:12;15.95;;;8.82;;
12308;SDS011;6217;48.150;17.142;2024-02-16T15:46:18;12.75;;;9.43;;
12308;SDS011;6217;48.150;17.142;2024-02-16T15:50:24;10.88;;;8.40;;
12308;SDS011;6217;48.150;17.142;2024-02-16T15:54:35;9.73;;;7.60;;
12308;SDS011;6217;48.150;17.142;2024-02-16T15:58:41;13.27;;;8.68;;
12308;SDS011;6217;48.150;17.142;2024-02-16T16:02:48;15.38;;;9.80;;
12308;SDS011;6217;48.150;17.142;2024-02-16T16:06:54;12.48;;;7.57;;
12308;SDS011;6217;48.150;17.142;2024-02-16T16:10:59;9.02;;;7.30;;
12308;SDS011;6217;48.150;17.142;2024-02-16T16:15:07;11.93;;;8.35;;
12308;SDS011;6217;48.150;17.142;2024-02-16T16:19:14;9.45;;;8.18;;
12308;SDS011;6217;48.150;17.142;2024-02-16T16:23:20;13.20;;;8.82;;
12308;SDS011;6217;48.150;17.142;2024-02-16T16:27:27;11.48;;;9.32;;
12308;SDS011;6217;48.150;17.142;2024-02-16T16:31:33;11.43;;;7.75;;
12308;SDS011;6217;48.150;17.142;2024-02-16T16:35:39;10.45;;;7.68;;
12308;SDS011;6217;48.150;17.142;2024-02-16T16:39:45;14.32;;;8.63;;
12308;SDS011;6217;48.150;17.142;2024-02-16T16:43:51;10.73;;;8.07;;
12308;SDS011;6217;48.150;17.142;2024-02-16T16:48:00;13.90;;;7.72;;
12308;SDS011;6217;48.150;17.142;2024-02-16T16:52:06;9.95;;;7.85;;
12308;SDS011;6217;48.150;17.142;2024-02-16T16:56:13;11.88;;;8.45;;
12308;SDS011;6217;48.150;17.142;2024-02-16T17:00:24;9.93;;;7.53;;
12308;SDS011;6217;48.150;17.142;2024-02-16T17:04:30;13.75;;;9.73;;
12308;SDS011;6217;48.150;17.142;2024-02-16T17:08:38;11.98;;;9.40;;
12308;SDS011;6217;48.150;17.142;2024-02-16T17:12:44;13.93;;;9.50;;
12308;SDS011;6217;48.150;17.142;2024-02-16T17:16:50;12.40;;;8.75;;
12308;SDS011;6217;48.150;17.142;2024-02-16T17:20:56;10.27;;;8.23;;
12308;SDS011;6217;48.150;17.142;2024-02-16T17:25:02;15.13;;;9.52;;
12308;SDS011;6217;48.150;17.142;2024-02-16T17:29:10;11.80;;;7.68;;
12308;SDS011;6217;48.150;17.142;2024-02-16T17:33:15;8.30;;;7.15;;
12308;SDS011;6217;48.150;17.142;2024-02-16T17:37:22;12.38;;;9.65;;
12308;SDS011;6217;48.150;17.142;2024-02-16T17:41:28;10.70;;;8.27;;
12308;SDS011;6217;48.150;17.142;2024-02-16T17:45:35;17.05;;;8.40;;
12308;SDS011;6217;48.150;17.142;2024-02-16T17:49:41;11.05;;;8.82;;
12308;SDS011;6217;48.150;17.142;2024-02-16T17:53:51;13.35;;;10.48;;
12308;SDS011;6217;48.150;17.142;2024-02-16T17:58:00;11.77;;;8.93;;
12308;SDS011;6217;48.150;17.142;2024-02-16T18:02:07;13.40;;;9.35;;
12308;SDS011;6217;48.150;17.142;2024-02-16T18:06:14;14.02;;;9.45;;
12308;SDS011;6217;48.150;17.142;2024-02-16T18:10:20;11.50;;;8.82;;
12308;SDS011;6217;48.150;17.142;2024-02-16T18:14:26;11.88;;;9.07;;
12308;SDS011;6217;48.150;17.142;2024-02-16T18:18:32;11.75;;;8.50;;
12308;SDS011;6217;48.150;17.142;2024-02-16T18:22:38;13.70;;;9.50;;
12308;SDS011;6217;48.150;17.142;2024-02-16T18:26:44;12.75;;;9.43;;
12308;SDS011;6217;48.150;17.142;2024-02-16T18:30:50;16.45;;;9.45;;
12308;SDS011;6217;48.150;17.142;2024-02-16T18:34:56;13.30;;;9.32;;
12308;SDS011;6217;48.150;17.142;2024-02-16T18:39:02;15.65;;;9.55;;
12308;SDS011;6217;48.150;17.142;2024-02-16T18:43:08;13.60;;;9.75;;
12308;SDS011;6217;48.150;17.142;2024-02-16T18:47:14;14.88;;;10.40;;
12308;SDS011;6217;48.150;17.142;2024-02-16T18:51:21;14.23;;;10.27;;
12308;SDS011;6217;48.150;17.142;2024-02-16T18:55:27;14.80;;;9.48;;
12308;SDS011;6217;48.150;17.142;2024-02-16T18:59:33;14.98;;;9.52;;
12308;SDS011;6217;48.150;17.142;2024-02-16T19:03:40;16.45;;;9.63;;
12308;SDS011;6217;48.150;17.142;2024-02-16T19:07:46;13.95;;;9.65;;
12308;SDS011;6217;48.150;17.142;2024-02-16T19:11:54;13.35;;;10.07;;
12308;SDS011;6217;48.150;17.142;2024-02-16T19:16:00;12.15;;;9.13;;
12308;SDS011;6217;48.150;17.142;2024-02-16T19:20:09;14.90;;;10.85;;
12308;SDS011;6217;48.150;17.142;2024-02-16T19:24:15;13.65;;;10.15;;
12308;SDS011;6217;48.150;17.142;2024-02-16T19:28:21;17.20;;;10.60;;
12308;SDS011;6217;48.150;17.142;2024-02-16T19:32:27;19.90;;;12.35;;
12308;SDS011;6217;48.150;17.142;2024-02-16T19:36:33;20.85;;;12.20;;
12308;SDS011;6217;48.150;17.142;2024-02-16T19:40:39;16.92;;;11.82;;
12308;SDS011;6217;48.150;17.142;2024-02-16T19:44:46;15.82;;;13.35;;
12308;SDS011;6217;48.150;17.142;2024-02-16T19:48:52;15.68;;;10.95;;
12308;SDS011;6217;48.150;17.142;2024-02-16T19:52:58;17.05;;;11.80;;
12308;SDS011;6217;48.150;17.142;2024-02-16T19:57:04;14.13;;;10.70;;
12308;SDS011;6217;48.150;17.142;2024-02-16T20:01:10;17.73;;;10.77;;
12308;SDS011;6217;48.150;17.142;2024-02-16T20:05:16;14.70;;;11.77;;
12308;SDS011;6217;48.150;17.142;2024-02-16T20:09:23;17.02;;;12.75;;
12308;SDS011;6217;48.150;17.142;2024-02-16T20:13:28;19.17;;;13.00;;
12308;SDS011;6217;48.150;17.142;2024-02-16T20:17:36;21.95;;;11.90;;
12308;SDS011;6217;48.150;17.142;2024-02-16T20:21:42;18.48;;;11.90;;
12308;SDS011;6217;48.150;17.142;2024-02-16T20:25:48;19.20;;;13.48;;
12308;SDS011;6217;48.150;17.142;2024-02-16T20:29:54;18.05;;;14.35;;
12308;SDS011;6217;48.150;17.142;2024-02-16T20:34:00;17.27;;;13.30;;
12308;SDS011;6217;48.150;17.142;2024-02-16T20:38:06;17.92;;;13.18;;
12308;SDS011;6217;48.150;17.142;2024-02-16T20:42:12;21.73;;;14.32;;
12308;SDS011;6217;48.150;17.142;2024-02-16T20:46:18;17.15;;;13.43;;
12308;SDS011;6217;48.150;17.142;2024-02-16T20:50:24;20.88;;;14.90;;
12308;SDS011;6217;48.150;17.142;2024-02-16T20:54:30;19.88;;;14.20;;
12308;SDS011;6217;48.150;17.142;2024-02-16T20:58:37;17.90;;;13.75;;
12308;SDS011;6217;48.150;17.142;2024-02-16T21:02:43;18.95;;;12.82;;
12308;SDS011;6217;48.150;17.142;2024-02-16T21:06:49;22.15;;;12.82;;
12308;SDS011;6217;48.150;17.142;2024-02-16T21:10:56;17.42;;;13.63;;
12308;SDS011;6217;48.150;17.142;2024-02-16T21:15:02;18.27;;;13.85;;
12308;SDS011;6217;48.150;17.142;2024-02-16T21:19:09;17.23;;;13.10;;
12308;SDS011;6217;48.150;17.142;2024-02-16T21:23:15;14.95;;;12.23;;
12308;SDS011;6217;48.150;17.142;2024-02-16T21:27:21;18.73;;;13.02;;
12308;SDS011;6217;48.150;17.142;2024-02-16T21:31:30;20.77;;;12.90;;
12308;SDS011;6217;48.150;17.142;2024-02-16T21:35:39;18.70;;;12.10;;
12308;SDS011;6217;48.150;17.142;2024-02-16T21:39:46;17.75;;;12.07;;
12308;SDS011;6217;48.150;17.142;2024-02-16T21:43:53;20.83;;;12.98;;
12308;SDS011;6217;48.150;17.142;2024-02-16T21:47:59;17.05;;;11.75;;
12308;SDS011;6217;48.150;17.142;2024-02-16T21:52:06;19.40;;;13.10;;
12308;SDS011;6217;48.150;17.142;2024-02-16T21:56:12;15.77;;;12.30;;
12308;SDS011;6217;48.150;17.142;2024-02-16T22:00:19;21.35;;;13.13;;
12308;SDS011;6217;48.150;17.142;2024-02-16T22:04:25;19.52;;;13.30;;
12308;SDS011;6217;48.150;17.142;2024-02-16T22:08:31;17.77;;;13.05;;
12308;SDS011;6217;48.150;17.142;2024-02-16T22:12:37;19.23;;;13.63;;
12308;SDS011;6217;48.150;17.142;2024-02-16T22:16:44;22.40;;;13.63;;
12308;SDS011;6217;48.150;17.142;2024-02-16T22:20:50;18.92;;;13.27;;
12308;SDS011;6217;48.150;17.142;2024-02-16T22:24:55;20.75;;;15.15;;
12308;SDS011;6217;48.150;17.142;2024-02-16T22:29:01;20.45;;;14.25;;
12308;SDS011;6217;48.150;17.142;2024-02-16T22:33:07;18.08;;;13.88;;
12308;SDS011;6217;48.150;17.142;2024-02-16T22:37:13;17.13;;;13.50;;
12308;SDS011;6217;48.150;17.142;2024-02-16T22:41:19;22.48;;;13.48;;
12308;SDS011;6217;48.150;17.142;2024-02-16T22:45:25;17.95;;;13.15;;
12308;SDS011;6217;48.150;17.142;2024-02-16T22:49:31;21.15;;;14.20;;
12308;SDS011;6217;48.150;17.142;2024-02-16T22:53:37;16.70;;;12.02;;
12308;SDS011;6217;48.150;17.142;2024-02-16T22:57:43;21.83;;;14.43;;
12308;SDS011;6217;48.150;17.142;2024-02-16T23:01:49;21.42;;;14.13;;
12308;SDS011;6217;48.150;17.142;2024-02-16T23:05:55;18.00;;;13.32;;
12308;SDS011;6217;48.150;17.142;2024-02-16T23:10:04;23.67;;;12.82;;
12308;SDS011;6217;48.150;17.142;2024-02-16T23:18:27;18.30;;;13.65;;
12308;SDS011;6217;48.150;17.142;2024-02-16T23:22:34;18.95;;;13.88;;
12308;SDS011;6217;48.150;17.142;2024-02-16T23:26:40;24.52;;;15.02;;
12308;SDS011;6217;48.150;17.142;2024-02-16T23:30:46;15.35;;;12.73;;
12308;SDS011;6217;48.150;17.142;2024-02-16T23:34:52;17.65;;;13.18;;
12308;SDS011;6217;48.150;17.142;2024-02-16T23:38:58;21.30;;;14.68;;
12308;SDS011;6217;48.150;17.142;2024-02-16T23:43:04;19.83;;;14.15;;
12308;SDS011;6217;48.150;17.142;2024-02-16T23:47:15;23.60;;;13.97;;
12308;SDS011;6217;48.150;17.142;2024-02-16T23:51:21;20.02;;;14.57;;
12308;SDS011;6217;48.150;17.142;2024-02-16T23:55:28;20.15;;;15.20;;
12308;SDS011;6217;48.150;17.142;2024-02-16T23:59:34;24.13;;;15.02;;
